sensor_id;sensor_type;location;lat;lon;timestamp;pressure;altitude;pressure_sealevel;temperature;humidity
70127;BME280;57491;42.694;23.314;2023-05-20T00:01:42;95464.63;;;14.78;71.33
70127;BME280;57491;42.694;23.314;2023-05-20T00:04:10;95458.00;;;14.82;71.37
70127;BME280;57491;42.694;23.314;2023-05-20T00:06:37;95451.59;;;14.85;71.39
70127;BME280;57491;42.694;23.314;2023-05-20T00:09:04;95455.81;;;14.86;71.41
70127;BME280;57491;42.694;23.314;2023-05-20T00:11:31;95456.41;;;14.81;71.63
70127;BME280;57491;42.694;23.314;2023-05-20T00:14:00;95456.59;;;14.80;71.62
70127;BME280;57491;42.694;23.314;2023-05-20T00:16:27;95460.78;;;14.74;71.58
70127;BME280;57491;42.694;23.314;2023-05-20T00:18:54;95452.13;;;14.67;71.66
70127;BME280;57491;42.694;23.314;2023-05-20T00:21:21;95457.56;;;14.72;72.11
70127;BME280;57491;42.694;23.314;2023-05-20T00:23:49;95446.28;;;14.71;71.72
70127;BME280;57491;42.694;23.314;2023-05-20T00:26:16;95454.16;;;14.71;72.28
70127;BME280;57491;42.694;23.314;2023-05-20T00:28:43;95448.88;;;14.65;72.33
70127;BME280;57491;42.694;23.314;2023-05-20T00:31:11;95444.69;;;14.70;71.97
70127;BME280;57491;42.694;23.314;2023-05-20T00:33:38;95440.25;;;14.71;71.98
70127;BME280;57491;42.694;23.314;2023-05-20T00:36:06;95434.97;;;14.64;71.84
70127;BME280;57491;42.694;23.314;2023-05-20T00:38:33;95434.97;;;14.64;71.54
70127;BME280;57491;42.694;23.314;2023-05-20T00:41:00;95447.84;;;14.59;71.27
70127;BME280;57491;42.694;23.314;2023-05-20T00:43:27;95434.91;;;14.51;71.05
70127;BME280;57491;42.694;23.314;2023-05-20T00:45:54;95423.13;;;14.34;71.33
70127;BME280;57491;42.694;23.314;2023-05-20T00:48:23;95434.41;;;14.35;71.83
70127;BME280;57491;42.694;23.314;2023-05-20T00:50:50;95436.41;;;14.32;71.81
70127;BME280;57491;42.694;23.314;2023-05-20T00:53:17;95433.59;;;14.34;71.58
70127;BME280;57491;42.694;23.314;2023-05-20T00:55:45;95432.78;;;14.34;71.40
70127;BME280;57491;42.694;23.314;2023-05-20T00:58:13;95433.13;;;14.24;71.49
70127;BME280;57491;42.694;23.314;2023-05-20T01:00:40;95424.22;;;14.12;71.64
70127;BME280;57491;42.694;23.314;2023-05-20T01:03:08;95412.47;;;14.01;72.04
70127;BME280;57491;42.694;23.314;2023-05-20T01:05:37;95429.34;;;13.99;73.09
70127;BME280;57491;42.694;23.314;2023-05-20T01:08:04;95421.28;;;13.94;73.46
70127;BME280;57491;42.694;23.314;2023-05-20T01:10:33;95424.53;;;13.96;73.71
70127;BME280;57491;42.694;23.314;2023-05-20T01:13:04;95428.97;;;14.02;72.92
70127;BME280;57491;42.694;23.314;2023-05-20T01:15:34;95439.63;;;14.00;73.16
70127;BME280;57491;42.694;23.314;2023-05-20T01:18:02;95435.59;;;13.98;72.41
70127;BME280;57491;42.694;23.314;2023-05-20T01:20:30;95433.34;;;13.95;72.46
70127;BME280;57491;42.694;23.314;2023-05-20T01:23:00;95436.97;;;13.94;73.02
70127;BME280;57491;42.694;23.314;2023-05-20T01:25:27;95434.09;;;13.89;72.36
70127;BME280;57491;42.694;23.314;2023-05-20T01:27:55;95436.13;;;13.87;72.77
70127;BME280;57491;42.694;23.314;2023-05-20T01:30:25;95432.88;;;13.84;72.83
70127;BME280;57491;42.694;23.314;2023-05-20T01:33:00;95438.50;;;13.81;72.68
70127;BME280;57491;42.694;23.314;2023-05-20T01:35:27;95424.31;;;13.69;72.74
70127;BME280;57491;42.694;23.314;2023-05-20T01:37:55;95427.13;;;13.68;73.00
70127;BME280;57491;42.694;23.314;2023-05-20T01:40:26;95425.50;;;13.67;73.61
70127;BME280;57491;42.694;23.314;2023-05-20T01:42:54;95428.13;;;13.67;72.71
70127;BME280;57491;42.694;23.314;2023-05-20T01:45:22;95427.56;;;13.71;72.37
70127;BME280;57491;42.694;23.314;2023-05-20T01:47:49;95419.63;;;13.58;71.98
70127;BME280;57491;42.694;23.314;2023-05-20T01:50:16;95430.72;;;13.67;72.76
70127;BME280;57491;42.694;23.314;2023-05-20T01:52:43;95427.69;;;13.63;73.18
70127;BME280;57491;42.694;23.314;2023-05-20T01:55:10;95423.38;;;13.56;72.87
70127;BME280;57491;42.694;23.314;2023-05-20T01:57:39;95418.38;;;13.54;73.57
70127;BME280;57491;42.694;23.314;2023-05-20T02:00:07;95418.16;;;13.56;73.81
70127;BME280;57491;42.694;23.314;2023-05-20T02:02:35;95421.22;;;13.59;74.37
70127;BME280;57491;42.694;23.314;2023-05-20T02:05:02;95432.09;;;13.63;73.83
70127;BME280;57491;42.694;23.314;2023-05-20T02:07:29;95414.38;;;13.58;73.45
70127;BME280;57491;42.694;23.314;2023-05-20T02:09:56;95424.88;;;13.65;73.88
70127;BME280;57491;42.694;23.314;2023-05-20T02:12:23;95408.53;;;13.56;73.97
70127;BME280;57491;42.694;23.314;2023-05-20T02:14:52;95406.88;;;13.49;74.48
70127;BME280;57491;42.694;23.314;2023-05-20T02:17:19;95411.72;;;13.52;74.14
70127;BME280;57491;42.694;23.314;2023-05-20T02:19:48;95423.22;;;13.57;74.29
70127;BME280;57491;42.694;23.314;2023-05-20T02:22:15;95415.63;;;13.62;74.13
70127;BME280;57491;42.694;23.314;2023-05-20T02:24:43;95415.22;;;13.65;74.41
70127;BME280;57491;42.694;23.314;2023-05-20T02:27:10;95400.13;;;13.61;73.60
70127;BME280;57491;42.694;23.314;2023-05-20T02:29:37;95406.41;;;13.66;74.31
70127;BME280;57491;42.694;23.314;2023-05-20T02:32:06;95411.25;;;13.69;74.81
70127;BME280;57491;42.694;23.314;2023-05-20T02:34:33;95409.88;;;13.73;74.04
70127;BME280;57491;42.694;23.314;2023-05-20T02:37:02;95412.69;;;13.72;74.72
70127;BME280;57491;42.694;23.314;2023-05-20T02:39:29;95411.88;;;13.71;74.50
70127;BME280;57491;42.694;23.314;2023-05-20T02:41:56;95414.50;;;13.71;74.67
70127;BME280;57491;42.694;23.314;2023-05-20T02:44:31;95418.50;;;13.74;74.80
70127;BME280;57491;42.694;23.314;2023-05-20T02:46:58;95413.03;;;13.69;74.27
70127;BME280;57491;42.694;23.314;2023-05-20T02:49:26;95410.63;;;13.67;74.48
70127;BME280;57491;42.694;23.314;2023-05-20T02:51:53;95409.66;;;13.68;73.61
70127;BME280;57491;42.694;23.314;2023-05-20T02:54:21;95416.44;;;13.63;74.25
70127;BME280;57491;42.694;23.314;2023-05-20T02:56:47;95413.31;;;13.53;74.79
70127;BME280;57491;42.694;23.314;2023-05-20T02:59:17;95410.53;;;13.54;74.54
70127;BME280;57491;42.694;23.314;2023-05-20T03:01:44;95411.34;;;13.55;74.49
70127;BME280;57491;42.694;23.314;2023-05-20T03:04:11;95408.34;;;13.58;74.45
70127;BME280;57491;42.694;23.314;2023-05-20T03:06:40;95410.53;;;13.54;75.38
70127;BME280;57491;42.694;23.314;2023-05-20T03:09:09;95421.00;;;13.54;74.58
70127;BME280;57491;42.694;23.314;2023-05-20T03:11:36;95427.84;;;13.55;74.59
70127;BME280;57491;42.694;23.314;2023-05-20T03:14:03;95429.50;;;13.63;75.24
70127;BME280;57491;42.694;23.314;2023-05-20T03:16:30;95433.09;;;13.62;75.16
70127;BME280;57491;42.694;23.314;2023-05-20T03:19:00;95428.44;;;13.57;74.97
70127;BME280;57491;42.694;23.314;2023-05-20T03:21:27;95435.28;;;13.58;74.13
70127;BME280;57491;42.694;23.314;2023-05-20T03:23:55;95442.19;;;13.66;75.14
70127;BME280;57491;42.694;23.314;2023-05-20T03:26:22;95439.63;;;13.72;75.53
70127;BME280;57491;42.694;23.314;2023-05-20T03:28:50;95437.84;;;13.79;74.88
70127;BME280;57491;42.694;23.314;2023-05-20T03:31:17;95429.22;;;13.79;73.27
70127;BME280;57491;42.694;23.314;2023-05-20T03:33:44;95431.88;;;13.85;73.07
70127;BME280;57491;42.694;23.314;2023-05-20T03:36:11;95436.13;;;13.87;73.93
70127;BME280;57491;42.694;23.314;2023-05-20T03:38:38;95438.53;;;13.88;73.90
70127;BME280;57491;42.694;23.314;2023-05-20T03:41:07;95436.97;;;13.94;73.53
70127;BME280;57491;42.694;23.314;2023-05-20T03:43:34;95446.28;;;14.03;74.34
70127;BME280;57491;42.694;23.314;2023-05-20T03:46:01;95442.28;;;14.07;73.80
70127;BME280;57491;42.694;23.314;2023-05-20T03:48:28;95443.34;;;14.19;72.96
70127;BME280;57491;42.694;23.314;2023-05-20T03:50:56;95441.97;;;14.23;72.24
70127;BME280;57491;42.694;23.314;2023-05-20T03:53:24;95452.25;;;14.24;71.63
70127;BME280;57491;42.694;23.314;2023-05-20T03:55:51;95457.28;;;14.26;71.55
70127;BME280;57491;42.694;23.314;2023-05-20T03:58:19;95462.13;;;14.29;71.74
70127;BME280;57491;42.694;23.314;2023-05-20T04:00:47;95458.13;;;14.33;71.44
70127;BME280;57491;42.694;23.314;2023-05-20T04:03:14;95451.75;;;14.36;71.72
70127;BME280;57491;42.694;23.314;2023-05-20T04:05:41;95455.44;;;14.48;71.57
70127;BME280;57491;42.694;23.314;2023-05-20T04:08:10;95463.13;;;14.56;70.92
70127;BME280;57491;42.694;23.314;2023-05-20T04:10:39;95475.03;;;14.65;71.01
70127;BME280;57491;42.694;23.314;2023-05-20T04:13:07;95464.41;;;14.73;70.54
70127;BME280;57491;42.694;23.314;2023-05-20T04:15:36;95472.53;;;14.85;69.92
70127;BME280;57491;42.694;23.314;2023-05-20T04:18:04;95455.19;;;14.84;69.95
70127;BME280;57491;42.694;23.314;2023-05-20T04:20:33;95470.72;;;14.92;69.93
70127;BME280;57491;42.694;23.314;2023-05-20T04:23:00;95468.38;;;15.03;69.99
70127;BME280;57491;42.694;23.314;2023-05-20T04:25:27;95469.81;;;15.12;69.62
70127;BME280;57491;42.694;23.314;2023-05-20T04:27:54;95462.97;;;15.25;69.27
70127;BME280;57491;42.694;23.314;2023-05-20T04:30:22;95467.84;;;15.34;68.65
70127;BME280;57491;42.694;23.314;2023-05-20T04:32:50;95462.81;;;15.39;68.87
70127;BME280;57491;42.694;23.314;2023-05-20T04:35:18;95464.25;;;15.48;68.19
70127;BME280;57491;42.694;23.314;2023-05-20T04:37:45;95461.47;;;15.56;67.99
70127;BME280;57491;42.694;23.314;2023-05-20T04:40:13;95460.84;;;15.68;67.64
70127;BME280;57491;42.694;23.314;2023-05-20T04:42:40;95472.34;;;15.73;67.33
70127;BME280;57491;42.694;23.314;2023-05-20T04:45:08;95473.16;;;15.87;66.98
70127;BME280;57491;42.694;23.314;2023-05-20T04:47:35;95476.41;;;15.95;66.63
70127;BME280;57491;42.694;23.314;2023-05-20T04:50:07;95477.41;;;16.01;66.80
70127;BME280;57491;42.694;23.314;2023-05-20T04:52:35;95471.16;;;16.15;66.04
70127;BME280;57491;42.694;23.314;2023-05-20T04:55:04;95466.47;;;16.30;65.33
70127;BME280;57491;42.694;23.314;2023-05-20T04:57:31;95480.59;;;16.42;64.78
70127;BME280;57491;42.694;23.314;2023-05-20T05:00:00;95470.06;;;16.56;64.47
70127;BME280;57491;42.694;23.314;2023-05-20T05:02:31;95464.19;;;16.67;63.57
70127;BME280;57491;42.694;23.314;2023-05-20T05:04:58;95462.97;;;16.76;63.01
70127;BME280;57491;42.694;23.314;2023-05-20T05:07:27;95460.53;;;16.81;62.75
70127;BME280;57491;42.694;23.314;2023-05-20T05:09:54;95466.53;;;16.94;62.99
70127;BME280;57491;42.694;23.314;2023-05-20T05:12:21;95468.28;;;17.07;62.97
70127;BME280;57491;42.694;23.314;2023-05-20T05:14:48;95473.09;;;17.17;62.01
70127;BME280;57491;42.694;23.314;2023-05-20T05:17:15;95471.03;;;17.25;61.24
70127;BME280;57491;42.694;23.314;2023-05-20T05:19:42;95477.88;;;17.33;61.11
70127;BME280;57491;42.694;23.314;2023-05-20T05:22:09;95464.84;;;17.45;60.31
70127;BME280;57491;42.694;23.314;2023-05-20T05:24:38;95471.47;;;17.60;60.99
70127;BME280;57491;42.694;23.314;2023-05-20T05:27:05;95468.59;;;17.68;60.10
70127;BME280;57491;42.694;23.314;2023-05-20T05:29:32;95466.00;;;17.62;59.90
70127;BME280;57491;42.694;23.314;2023-05-20T05:32:00;95465.25;;;17.79;59.49
70127;BME280;57491;42.694;23.314;2023-05-20T05:34:26;95462.41;;;17.81;58.82
70127;BME280;57491;42.694;23.314;2023-05-20T05:36:53;95458.66;;;17.95;58.39
70127;BME280;57491;42.694;23.314;2023-05-20T05:39:20;95457.06;;;17.94;58.61
70127;BME280;57491;42.694;23.314;2023-05-20T05:41:49;95458.56;;;18.08;58.12
70127;BME280;57491;42.694;23.314;2023-05-20T05:44:16;95458.53;;;18.33;57.58
70127;BME280;57491;42.694;23.314;2023-05-20T05:46:43;95460.16;;;18.52;57.82
70127;BME280;57491;42.694;23.314;2023-05-20T05:49:10;95462.31;;;18.80;57.00
70127;BME280;57491;42.694;23.314;2023-05-20T05:51:37;95461.72;;;18.96;57.02
70127;BME280;57491;42.694;23.314;2023-05-20T05:54:04;95461.13;;;19.12;55.66
70127;BME280;57491;42.694;23.314;2023-05-20T05:56:31;95470.41;;;19.15;54.95
70127;BME280;57491;42.694;23.314;2023-05-20T05:58:59;95464.16;;;19.28;54.60
70127;BME280;57491;42.694;23.314;2023-05-20T06:01:27;95457.28;;;19.27;53.63
70127;BME280;57491;42.694;23.314;2023-05-20T06:03:54;95458.19;;;19.50;53.81
70127;BME280;57491;42.694;23.314;2023-05-20T06:06:21;95456.44;;;19.74;53.90
70127;BME280;57491;42.694;23.314;2023-05-20T06:08:48;95445.00;;;19.92;52.63
70127;BME280;57491;42.694;23.314;2023-05-20T06:11:15;95443.84;;;19.99;52.32
70127;BME280;57491;42.694;23.314;2023-05-20T06:13:42;95441.34;;;20.16;51.08
70127;BME280;57491;42.694;23.314;2023-05-20T06:16:10;95441.97;;;20.30;50.71
70127;BME280;57491;42.694;23.314;2023-05-20T06:18:37;95447.56;;;20.57;50.88
70127;BME280;57491;42.694;23.314;2023-05-20T06:21:04;95439.94;;;20.72;50.15
70127;BME280;57491;42.694;23.314;2023-05-20T06:23:31;95438.66;;;20.86;49.88
70127;BME280;57491;42.694;23.314;2023-05-20T06:25:59;95447.34;;;21.10;48.86
70127;BME280;57491;42.694;23.314;2023-05-20T06:28:26;95439.38;;;21.21;47.06
70127;BME280;57491;42.694;23.314;2023-05-20T06:30:53;95439.19;;;21.40;47.01
70127;BME280;57491;42.694;23.314;2023-05-20T06:33:23;95441.50;;;21.36;46.07
70127;BME280;57491;42.694;23.314;2023-05-20T06:35:51;95427.03;;;21.55;45.27
70127;BME280;57491;42.694;23.314;2023-05-20T06:38:18;95422.47;;;21.67;45.45
70127;BME280;57491;42.694;23.314;2023-05-20T06:40:47;95415.97;;;21.75;44.22
70127;BME280;57491;42.694;23.314;2023-05-20T06:43:14;95414.41;;;21.91;44.83
70127;BME280;57491;42.694;23.314;2023-05-20T06:45:41;95410.50;;;22.10;44.18
70127;BME280;57491;42.694;23.314;2023-05-20T06:48:09;95410.59;;;22.15;43.98
70127;BME280;57491;42.694;23.314;2023-05-20T06:50:37;95413.78;;;22.17;42.54
70127;BME280;57491;42.694;23.314;2023-05-20T06:53:04;95415.91;;;22.37;42.30
70127;BME280;57491;42.694;23.314;2023-05-20T06:55:31;95418.47;;;22.48;42.83
70127;BME280;57491;42.694;23.314;2023-05-20T06:57:59;95418.16;;;22.45;41.14
70127;BME280;57491;42.694;23.314;2023-05-20T07:00:26;95424.06;;;22.52;42.26
70127;BME280;57491;42.694;23.314;2023-05-20T07:02:53;95422.44;;;22.67;42.47
70127;BME280;57491;42.694;23.314;2023-05-20T07:05:20;95422.09;;;22.81;40.40
70127;BME280;57491;42.694;23.314;2023-05-20T07:07:50;95410.56;;;22.53;40.93
70127;BME280;57491;42.694;23.314;2023-05-20T07:10:17;95409.34;;;22.78;40.63
70127;BME280;57491;42.694;23.314;2023-05-20T07:12:44;95416.53;;;23.04;39.91
70127;BME280;57491;42.694;23.314;2023-05-20T07:15:11;95410.63;;;23.24;39.69
70127;BME280;57491;42.694;23.314;2023-05-20T07:17:39;95408.59;;;23.52;38.16
70127;BME280;57491;42.694;23.314;2023-05-20T07:20:07;95404.47;;;23.40;38.51
70127;BME280;57491;42.694;23.314;2023-05-20T07:22:34;95414.56;;;22.94;38.84
70127;BME280;57491;42.694;23.314;2023-05-20T07:25:03;95409.03;;;22.57;39.69
70127;BME280;57491;42.694;23.314;2023-05-20T07:27:30;95403.66;;;22.52;40.09
70127;BME280;57491;42.694;23.314;2023-05-20T07:29:57;95399.28;;;22.80;39.53
70127;BME280;57491;42.694;23.314;2023-05-20T07:32:24;95396.75;;;22.90;39.13
70127;BME280;57491;42.694;23.314;2023-05-20T07:34:51;95393.97;;;23.01;39.12
70127;BME280;57491;42.694;23.314;2023-05-20T07:37:18;95403.53;;;23.29;37.99
70127;BME280;57491;42.694;23.314;2023-05-20T07:39:46;95402.75;;;23.50;36.84
70127;BME280;57491;42.694;23.314;2023-05-20T07:42:14;95405.09;;;23.79;36.06
70127;BME280;57491;42.694;23.314;2023-05-20T07:44:41;95402.66;;;23.72;35.91
70127;BME280;57491;42.694;23.314;2023-05-20T07:47:09;95401.97;;;23.82;35.82
70127;BME280;57491;42.694;23.314;2023-05-20T07:49:36;95403.44;;;23.99;36.01
70127;BME280;57491;42.694;23.314;2023-05-20T07:52:04;95402.34;;;23.95;35.79
70127;BME280;57491;42.694;23.314;2023-05-20T07:54:33;95396.66;;;24.19;36.08
70127;BME280;57491;42.694;23.314;2023-05-20T07:57:00;95393.66;;;24.47;35.84
70127;BME280;57491;42.694;23.314;2023-05-20T07:59:29;95387.69;;;24.72;35.78
70127;BME280;57491;42.694;23.314;2023-05-20T08:01:56;95391.50;;;24.91;34.69
70127;BME280;57491;42.694;23.314;2023-05-20T08:04:23;95395.81;;;25.07;34.63
70127;BME280;57491;42.694;23.314;2023-05-20T08:06:51;95399.09;;;25.35;35.60
70127;BME280;57491;42.694;23.314;2023-05-20T08:09:18;95401.75;;;25.40;34.83
70127;BME280;57491;42.694;23.314;2023-05-20T08:11:46;95393.50;;;25.46;34.70
70127;BME280;57491;42.694;23.314;2023-05-20T08:14:13;95390.84;;;25.51;34.25
70127;BME280;57491;42.694;23.314;2023-05-20T08:16:42;95389.84;;;25.72;34.86
70127;BME280;57491;42.694;23.314;2023-05-20T08:19:09;95386.91;;;25.99;33.92
70127;BME280;57491;42.694;23.314;2023-05-20T08:21:36;95389.56;;;26.04;33.92
70127;BME280;57491;42.694;23.314;2023-05-20T08:24:04;95387.72;;;26.25;33.69
70127;BME280;57491;42.694;23.314;2023-05-20T08:26:31;95393.81;;;26.31;33.65
70127;BME280;57491;42.694;23.314;2023-05-20T08:28:58;95391.94;;;26.46;33.29
70127;BME280;57491;42.694;23.314;2023-05-20T08:31:25;95387.41;;;26.42;32.48
70127;BME280;57491;42.694;23.314;2023-05-20T08:33:54;95391.66;;;26.48;32.87
70127;BME280;57491;42.694;23.314;2023-05-20T08:36:21;95383.88;;;26.61;32.65
70127;BME280;57491;42.694;23.314;2023-05-20T08:38:48;95379.88;;;26.69;32.03
70127;BME280;57491;42.694;23.314;2023-05-20T08:41:15;95382.50;;;26.79;31.78
70127;BME280;57491;42.694;23.314;2023-05-20T08:43:43;95383.25;;;27.00;31.72
70127;BME280;57491;42.694;23.314;2023-05-20T08:46:10;95384.03;;;27.00;31.98
70127;BME280;57491;42.694;23.314;2023-05-20T08:48:38;95393.53;;;27.27;31.33
70127;BME280;57491;42.694;23.314;2023-05-20T08:51:08;95372.59;;;27.49;30.56
70127;BME280;57491;42.694;23.314;2023-05-20T08:53:36;95387.28;;;27.41;31.55
70127;BME280;57491;42.694;23.314;2023-05-20T08:56:03;95383.28;;;27.39;31.16
70127;BME280;57491;42.694;23.314;2023-05-20T08:58:31;95377.66;;;27.50;31.02
70127;BME280;57491;42.694;23.314;2023-05-20T09:00:58;95386.97;;;27.53;32.09
70127;BME280;57491;42.694;23.314;2023-05-20T09:03:26;95369.78;;;27.69;31.71
70127;BME280;57491;42.694;23.314;2023-05-20T09:06:01;95375.25;;;27.49;31.39
70127;BME280;57491;42.694;23.314;2023-05-20T09:08:30;95366.56;;;27.28;31.97
70127;BME280;57491;42.694;23.314;2023-05-20T09:10:57;95352.16;;;27.24;32.08
70127;BME280;57491;42.694;23.314;2023-05-20T09:13:25;95367.41;;;27.19;32.50
70127;BME280;57491;42.694;23.314;2023-05-20T09:15:52;95363.97;;;27.57;32.19
70127;BME280;57491;42.694;23.314;2023-05-20T09:18:19;95353.94;;;28.07;30.45
70127;BME280;57491;42.694;23.314;2023-05-20T09:20:49;95352.47;;;27.62;31.19
70127;BME280;57491;42.694;23.314;2023-05-20T09:23:18;95340.59;;;28.07;30.94
70127;BME280;57491;42.694;23.314;2023-05-20T09:25:49;95350.59;;;27.96;31.06
70127;BME280;57491;42.694;23.314;2023-05-20T09:28:18;95338.78;;;27.68;30.29
70127;BME280;57491;42.694;23.314;2023-05-20T09:30:48;95347.66;;;27.92;30.28
70127;BME280;57491;42.694;23.314;2023-05-20T09:33:16;95355.00;;;28.11;30.43
70127;BME280;57491;42.694;23.314;2023-05-20T09:35:43;95350.00;;;28.28;29.93
70127;BME280;57491;42.694;23.314;2023-05-20T09:38:11;95342.47;;;28.35;29.36
70127;BME280;57491;42.694;23.314;2023-05-20T09:40:40;95343.50;;;28.39;30.11
70127;BME280;57491;42.694;23.314;2023-05-20T09:43:11;95337.63;;;28.61;29.63
70127;BME280;57491;42.694;23.314;2023-05-20T09:45:38;95342.38;;;28.45;30.65
70127;BME280;57491;42.694;23.314;2023-05-20T09:48:06;95330.63;;;28.65;29.71
70127;BME280;57491;42.694;23.314;2023-05-20T09:50:36;95327.38;;;28.92;29.18
70127;BME280;57491;42.694;23.314;2023-05-20T09:53:04;95327.53;;;29.19;28.40
70127;BME280;57491;42.694;23.314;2023-05-20T09:55:31;95329.28;;;29.10;28.70
70127;BME280;57491;42.694;23.314;2023-05-20T09:58:01;95315.59;;;28.69;29.19
70127;BME280;57491;42.694;23.314;2023-05-20T10:00:37;95316.31;;;28.98;28.56
70127;BME280;57491;42.694;23.314;2023-05-20T10:03:09;95319.28;;;28.97;27.67
70127;BME280;57491;42.694;23.314;2023-05-20T10:05:37;95327.75;;;29.22;27.95
70127;BME280;57491;42.694;23.314;2023-05-20T10:11:18;95308.13;;;29.64;27.77
70127;BME280;57491;42.694;23.314;2023-05-20T10:13:59;95307.81;;;29.85;27.04
70127;BME280;57491;42.694;23.314;2023-05-20T10:16:35;95300.63;;;30.26;28.06
70127;BME280;57491;42.694;23.314;2023-05-20T10:19:11;95287.44;;;30.43;26.11
70127;BME280;57491;42.694;23.314;2023-05-20T10:21:40;95298.28;;;30.79;25.82
70127;BME280;57491;42.694;23.314;2023-05-20T10:24:09;95280.56;;;30.92;25.51
70127;BME280;57491;42.694;23.314;2023-05-20T10:26:36;95278.22;;;31.13;24.42
70127;BME280;57491;42.694;23.314;2023-05-20T10:29:13;95287.63;;;31.02;24.46
70127;BME280;57491;42.694;23.314;2023-05-20T10:31:48;95279.56;;;31.37;24.77
70127;BME280;57491;42.694;23.314;2023-05-20T10:34:16;95275.34;;;31.45;23.48
70127;BME280;57491;42.694;23.314;2023-05-20T10:36:45;95275.81;;;30.89;24.43
70127;BME280;57491;42.694;23.314;2023-05-20T10:39:14;95271.91;;;30.27;25.09
70127;BME280;57491;42.694;23.314;2023-05-20T10:41:42;95269.03;;;30.09;25.40
70127;BME280;57491;42.694;23.314;2023-05-20T10:44:09;95266.09;;;29.79;25.69
70127;BME280;57491;42.694;23.314;2023-05-20T10:46:36;95262.47;;;29.18;25.89
70127;BME280;57491;42.694;23.314;2023-05-20T10:49:16;95252.69;;;29.46;26.29
70127;BME280;57491;42.694;23.314;2023-05-20T10:51:43;95248.41;;;29.78;25.64
70127;BME280;57491;42.694;23.314;2023-05-20T10:54:13;95252.03;;;29.54;25.20
70127;BME280;57491;42.694;23.314;2023-05-20T10:56:50;95243.88;;;29.27;25.65
70127;BME280;57491;42.694;23.314;2023-05-20T10:59:18;95257.34;;;29.22;25.47
70127;BME280;57491;42.694;23.314;2023-05-20T11:01:46;95238.78;;;29.31;25.51
70127;BME280;57491;42.694;23.314;2023-05-20T11:04:15;95239.28;;;29.79;24.70
70127;BME280;57491;42.694;23.314;2023-05-20T11:06:51;95234.00;;;30.20;25.39
70127;BME280;57491;42.694;23.314;2023-05-20T11:09:20;95224.94;;;30.29;25.09
70127;BME280;57491;42.694;23.314;2023-05-20T11:11:47;95238.94;;;30.53;24.09
70127;BME280;57491;42.694;23.314;2023-05-20T11:14:15;95239.16;;;30.02;25.05
70127;BME280;57491;42.694;23.314;2023-05-20T11:16:44;95239.34;;;29.92;25.65
70127;BME280;57491;42.694;23.314;2023-05-20T11:19:15;95230.22;;;30.07;25.58
70127;BME280;57491;42.694;23.314;2023-05-20T11:21:43;95225.16;;;29.59;26.06
70127;BME280;57491;42.694;23.314;2023-05-20T11:24:10;95233.63;;;28.97;26.29
70127;BME280;57491;42.694;23.314;2023-05-20T11:26:38;95221.44;;;28.67;26.70
70127;BME280;57491;42.694;23.314;2023-05-20T11:29:05;95219.44;;;29.15;25.92
70127;BME280;57491;42.694;23.314;2023-05-20T11:31:32;95217.44;;;29.72;25.79
70127;BME280;57491;42.694;23.314;2023-05-20T11:33:59;95197.72;;;29.95;25.45
70127;BME280;57491;42.694;23.314;2023-05-20T11:36:30;95206.66;;;30.58;24.73
70127;BME280;57491;42.694;23.314;2023-05-20T11:38:58;95208.50;;;30.72;23.73
70127;BME280;57491;42.694;23.314;2023-05-20T11:41:26;95191.59;;;30.08;24.09
70127;BME280;57491;42.694;23.314;2023-05-20T11:43:56;95199.06;;;28.81;26.33
70127;BME280;57491;42.694;23.314;2023-05-20T11:46:23;95200.41;;;28.60;27.20
70127;BME280;57491;42.694;23.314;2023-05-20T11:48:52;95195.84;;;29.17;27.99
70127;BME280;57491;42.694;23.314;2023-05-20T11:51:22;95188.59;;;29.50;27.14
70127;BME280;57491;42.694;23.314;2023-05-20T11:53:51;95195.00;;;29.03;27.57
70127;BME280;57491;42.694;23.314;2023-05-20T11:56:19;95188.75;;;28.51;28.42
70127;BME280;57491;42.694;23.314;2023-05-20T11:58:47;95201.97;;;28.43;27.78
70127;BME280;57491;42.694;23.314;2023-05-20T12:01:14;95192.38;;;28.60;28.38
70127;BME280;57491;42.694;23.314;2023-05-20T12:03:43;95181.28;;;28.91;28.92
70127;BME280;57491;42.694;23.314;2023-05-20T12:06:12;95183.06;;;28.95;27.96
70127;BME280;57491;42.694;23.314;2023-05-20T12:08:38;95172.69;;;29.07;28.35
70127;BME280;57491;42.694;23.314;2023-05-20T12:11:10;95165.97;;;28.91;28.20
70127;BME280;57491;42.694;23.314;2023-05-20T12:13:39;95167.06;;;28.53;28.76
70127;BME280;57491;42.694;23.314;2023-05-20T12:16:06;95163.88;;;28.32;29.16
70127;BME280;57491;42.694;23.314;2023-05-20T12:18:33;95161.75;;;28.10;29.35
70127;BME280;57491;42.694;23.314;2023-05-20T12:21:01;95169.69;;;28.15;29.90
70127;BME280;57491;42.694;23.314;2023-05-20T12:23:27;95174.03;;;28.11;29.50
70127;BME280;57491;42.694;23.314;2023-05-20T12:25:58;95177.44;;;27.69;29.60
70127;BME280;57491;42.694;23.314;2023-05-20T12:28:26;95159.75;;;27.16;30.08
70127;BME280;57491;42.694;23.314;2023-05-20T12:30:55;95178.47;;;26.28;30.29
70127;BME280;57491;42.694;23.314;2023-05-20T12:33:22;95183.75;;;25.48;31.49
70127;BME280;57491;42.694;23.314;2023-05-20T12:35:49;95200.00;;;25.06;31.39
70127;BME280;57491;42.694;23.314;2023-05-20T12:38:16;95198.09;;;24.81;32.20
70127;BME280;57491;42.694;23.314;2023-05-20T12:40:43;95198.13;;;24.04;34.27
70127;BME280;57491;42.694;23.314;2023-05-20T12:43:10;95205.16;;;23.78;35.76
70127;BME280;57491;42.694;23.314;2023-05-20T12:45:41;95225.47;;;23.52;33.75
70127;BME280;57491;42.694;23.314;2023-05-20T12:48:08;95225.75;;;23.24;32.90
70127;BME280;57491;42.694;23.314;2023-05-20T12:50:38;95214.38;;;22.92;32.42
70127;BME280;57491;42.694;23.314;2023-05-20T12:53:05;95224.41;;;22.90;32.94
70127;BME280;57491;42.694;23.314;2023-05-20T12:55:32;95212.22;;;22.89;33.95
70127;BME280;57491;42.694;23.314;2023-05-20T12:57:59;95216.31;;;22.75;34.29